Forestgrove, Montana
Current Conditions -  °F | °C
As of 2:54 AM on Tuesday 21 Oct 2014 (Local Time) from KLWT Reporting Station
Clear Clear  
Wind Chill: 60°   Ceiling: Unl
Heat Index: 60°   Visibility: 10mi
Dew Point: 35°   Wind: 13mph
Humidity: 39%   Direction: 170°S
Pressure: 29.75"   Gusts: NA
Location:  47.2485°N, 109.2631°W
Report Text: KLWT 210854Z AUTO 17011KT 10SM CLR 16/02 A2975 RMK AO2 SLP036 T01560017 58008
Loading
Personal Weather Stations






























Interactive Weather Map
Tropical Storm Tracking
New forecast layout! Learn more

10-Day Weather Forecast

Advertisements
Track Severe Weather on mobile